Data for 05/18/2005

Time Sea-Level Adjusted Pressure Absolute Pressure Temperature Relative Humidity Dew Point   
(mb) (inHg) (mb) (inHg) (C) (F) (%) (C) (F)
00:05 1009 29.8 838 24.75 7.6 45.6 64 1.3 34.4
00:10 1009 29.8 838 24.75 7.5 45.5 65 1.5 34.6
00:15 1009 29.8 838 24.75 7.5 45.4 66 1.6 34.8
00:20 1009 29.8 838 24.75 7.4 45.2 67 1.7 35.1
00:25 1009 29.8 838 24.75 7.2 45 67 1.5 34.7
00:30 1009 29.8 838 24.75 7.3 45.1 67 1.5 34.8
00:35 1009 29.8 838 24.75 7.2 45 69 1.9 35.4
00:40 1009 29.8 838 24.75 7 44.6 69 1.7 35
00:45 1009 29.8 838 24.75 7.2 44.9 68 1.6 34.9
00:50 1009 29.8 838 24.75 7.3 45.1 69 1.9 35.4
00:55 1009 29.8 838 24.75 7.1 44.7 69 1.9 35.4
01:00 1009 29.8 838 24.75 6.9 44.4 70 1.8 35.2
01:05 1009 29.8 838 24.75 6.8 44.2 69 1.6 34.8
01:10 1009 29.8 838 24.75 6.9 44.3 69 1.5 34.7
01:15 1009 29.8 838 24.75 6.9 44.5 69 1.7 35.1
01:20 1009 29.8 838 24.75 6.9 44.4 69 1.5 34.7
01:25 1009 29.8 839 24.78 6.9 44.4 68 1.3 34.4
01:30 1009 29.8 839 24.78 7.1 44.7 67 1.3 34.3
01:35 1009 29.8 839 24.78 7.2 44.9 68 1.7 35.1
01:40 1009 29.8 839 24.78 7.1 44.9 68 1.7 35.1
01:45 1009 29.8 839 24.78 6.9 44.4 69 1.6 34.9
01:50 1009 29.8 839 24.78 6.8 44.3 68 1.3 34.3
01:55 1010 29.83 839 24.78 6.9 44.5 67 1.2 34.1
02:00 1010 29.83 839 24.78 7 44.7 67 1.3 34.4
02:05 1010 29.83 839 24.78 7.2 44.9 67 1.4 34.5
02:10 1010 29.83 839 24.78 7.3 45.2 67 1.6 34.8
02:15 1010 29.83 839 24.78 7.4 45.4 66 1.5 34.8
02:20 1010 29.83 839 24.78 7.4 45.3 66 1.4 34.6
02:25 1010 29.83 839 24.78 7.3 45.1 67 1.6 34.8
02:30 1010 29.83 839 24.78 7.1 44.8 66 1.2 34.2
02:35 1010 29.83 839 24.78 7.3 45.1 67 1.5 34.7
02:40 1010 29.83 839 24.78 7.3 45.2 68 1.8 35.2
02:45 1010 29.83 839 24.78 7.4 45.3 69 2 35.7
02:50 1010 29.83 839 24.78 7.3 45.2 68 1.9 35.4
02:55 1010 29.83 839 24.78 7.4 45.3 68 2 35.6
03:00 1010 29.83 839 24.78 7.2 45 72 2.5 36.5
03:05 1010 29.83 839 24.78 6.9 44.5 73 2.4 36.3
03:10 1010 29.83 839 24.78 6.9 44.4 73 2.3 36.2
03:15 1010 29.83 839 24.78 6.8 44.2 71 2 35.5
03:20 1010 29.83 839 24.78 6.9 44.4 71 1.9 35.4
03:25 1010 29.83 839 24.78 7 44.6 70 1.9 35.4
03:30 1010 29.83 839 24.78 7.2 45 68 1.8 35.3
03:35 1010 29.83 839 24.78 7.4 45.3 68 1.8 35.3
03:40 1010 29.83 839 24.78 7.4 45.3 68 1.9 35.3
03:45 1010 29.83 839 24.78 7.5 45.5 68 1.9 35.4
03:50 1010 29.83 839 24.78 7.7 45.8 66 1.8 35.3
03:55 1010 29.83 839 24.78 7.7 45.8 65 1.6 34.9
04:00 1010 29.83 839 24.78 7.8 46 66 1.8 35.2
04:05 1010 29.83 839 24.78 7.8 46 66 1.8 35.3
04:10 1010 29.83 839 24.78 7.6 45.8 67 1.9 35.4
04:15 1010 29.83 839 24.78 7.3 45.1 70 2.2 36
04:20 1010 29.83 839 24.78 7.1 44.7 69 1.7 35.1
04:25 1010 29.83 839 24.78 7.3 45.1 66 1.3 34.4
04:30 1010 29.83 839 24.78 7.7 45.8 66 1.7 35
04:35 1009 29.8 839 24.78 7.8 46 62 1.1 33.9
04:40 1009 29.8 839 24.78 8.1 46.6 61 1 33.8
04:45 1009 29.8 839 24.78 8.2 46.8 61 1.2 34.2
04:50 1009 29.8 839 24.78 8.4 47.1 58 0.7 33.3
04:55 1010 29.83 839 24.78 8.3 46.9 67 2.5 36.5
05:00 1010 29.83 839 24.78 7.2 44.9 73 2.7 36.9
05:05 1010 29.83 839 24.78 6.5 43.7 73 2 35.5
05:10 1010 29.83 839 24.78 6.5 43.7 70 1.4 34.5
05:15 1010 29.83 839 24.78 6.7 44.1 69 1.6 34.8
05:20 1010 29.83 839 24.78 6.9 44.5 65 0.9 33.6
05:25 1010 29.83 839 24.78 7.3 45.1 66 1.4 34.5
05:30 1010 29.83 839 24.78 7.3 45.2 66 1.3 34.4
05:35 1010 29.83 839 24.78 7.1 44.7 67 1.4 34.5
05:40 1010 29.83 839 24.78 7.1 44.8 65 0.9 33.7
05:45 1010 29.83 839 24.78 7.2 45 66 1.2 34.2
05:50 1010 29.83 839 24.78 7 44.6 68 1.5 34.7
05:55 1010 29.83 839 24.78 6.9 44.4 66 1.1 33.9
06:00 1010 29.83 839 24.78 7 44.6 67 1.3 34.3
06:05 1010 29.83 839 24.78 7.1 44.7 66 1.2 34.1
06:10 1010 29.83 839 24.78 7.3 45.2 61 0.3 32.6
06:15 1009 29.8 839 24.78 7.5 45.5 63 0.9 33.5
06:20 1010 29.83 839 24.78 7.4 45.3 65 1.2 34.2
06:25 1010 29.83 839 24.78 6.9 44.4 65 0.8 33.4
06:30 1009 29.8 839 24.78 7.4 45.3 62 0.6 33.1
06:35 1009 29.8 839 24.78 7.6 45.7 63 1 33.8
06:40 1009 29.8 839 24.78 7.5 45.5 64 1.1 34
06:45 1009 29.8 839 24.78 7.4 45.3 62 0.5 32.9
06:50 1009 29.8 839 24.78 8 46.5 57 0 32
06:55 1009 29.8 839 24.78 8.8 47.9 56 0.5 32.8
07:00 1009 29.8 839 24.78 9.5 49.1 53 0.5 32.9
07:05 1010 29.83 839 24.78 9.5 49.1 53 0.4 32.7
07:10 1010 29.83 839 24.78 9.2 48.6 57 1.1 34
07:15 1010 29.83 839 24.78 9.2 48.5 58 1.3 34.3
07:20 1009 29.8 839 24.78 9.1 48.3 62 2.1 35.9
07:25 1010 29.83 839 24.78 9 48.2 62 2.1 35.9
07:30 1010 29.83 839 24.78 9 48.1 61 1.8 35.3
07:35 1010 29.83 839 24.78 8.9 48 62 2.1 35.8
07:40 1009 29.8 839 24.78 9.1 48.5 62 2.3 36.2
07:45 1009 29.8 839 24.78 9.1 48.3 62 2.2 36
07:50 1009 29.8 839 24.78 9.2 48.6 62 2.2 36
07:55 1009 29.8 839 24.78 9.1 48.4 62 2.1 35.8
08:00 1009 29.8 839 24.78 9.5 49.1 60 2.2 35.9
08:05 1010 29.83 839 24.78 9.9 49.7 58 1.9 35.4
08:10 1010 29.83 839 24.78 10.1 50.2 57 1.9 35.5
08:15 1010 29.83 839 24.78 10.3 50.6 55 1.8 35.2
08:20 1010 29.83 839 24.78 10.7 51.2 53 1.5 34.7
08:25 1010 29.83 839 24.78 10.9 51.6 51 1.2 34.1
08:30 1010 29.83 839 24.78 10.8 51.5 51 1 33.8
08:35 1010 29.83 839 24.78 10.8 51.4 50 0.8 33.4
08:40 1010 29.83 839 24.78 10.8 51.5 48 0.4 32.6
08:45 1010 29.83 839 24.78 11.2 52.2 47 0.4 32.7
08:50 1010 29.83 839 24.78 11.4 52.6 46 0.4 32.7
08:55 1010 29.83 839 24.78 11.5 52.7 44 -0.2 31.6
09:00 1010 29.83 839 24.78 11.4 52.6 47 0.5 32.9
09:05 1010 29.83 839 24.78 11.3 52.3 48 0.7 33.2
09:10 1010 29.83 839 24.78 11.5 52.8 47 0.7 33.2
09:15 1010 29.83 839 24.78 11.8 53.2 47 0.9 33.6
09:20 1010 29.83 839 24.78 11.6 52.9 47 0.7 33.2
09:25 1010 29.83 839 24.78 11.6 52.8 47 0.8 33.5
09:30 1010 29.83 839 24.78 11.4 52.5 49 1 33.9
09:35 1010 29.83 839 24.78 11.8 53.2 49 1.4 34.6
09:40 1010 29.83 839 24.78 12 53.7 47 1.2 34.1
09:45 1010 29.83 839 24.78 12.6 54.7 45 1.1 33.9
09:50 1010 29.83 839 24.78 13.4 56 42 0.8 33.5
09:55 1010 29.83 839 24.78 14.1 57.3 43 1.7 35
10:00 1010 29.83 839 24.78 13.8 56.8 43 1.5 34.7
10:05 1010 29.83 839 24.78 13.7 56.6 45 2.1 35.8
10:10 1009 29.8 839 24.78 13.7 56.6 44 1.6 35
10:15 1009 29.8 839 24.78 13.9 57 44 2 35.6
10:20 1009 29.8 839 24.78 13.6 56.5 44 1.7 35.1
10:25 1009 29.8 839 24.78 13.5 56.2 46 2 35.6
10:30 1009 29.8 839 24.78 13.4 56.1 45 1.7 35
10:35 1009 29.8 839 24.78 13.2 55.8 45 1.7 35
10:40 1009 29.8 839 24.78 13.6 56.6 45 1.9 35.4
10:45 1009 29.8 839 24.78 13.6 56.4 45 1.8 35.2
10:50 1009 29.8 839 24.78 14.1 57.4 43 1.7 35
10:55 1009 29.8 839 24.78 14.4 57.9 43 2.1 35.7
11:00 1009 29.8 839 24.78 14.6 58.2 43 2.1 35.8
11:05 1009 29.8 839 24.78 13.9 56.9 43 1.7 35
11:10 1009 29.8 839 24.78 14.2 57.6 43 2 35.6
11:15 1009 29.8 839 24.78 13.7 56.7 45 2 35.6
11:20 1009 29.8 839 24.78 14.4 57.8 43 1.9 35.4
11:25 1009 29.8 839 24.78 14.9 58.8 41 1.9 35.4
11:30 1009 29.8 839 24.78 14.6 58.4 43 2.3 36.1
11:35 1009 29.8 839 24.78 15.1 59.2 40 1.9 35.3
11:40 1009 29.8 839 24.78 15.2 59.3 40 1.9 35.4
11:45 1009 29.8 839 24.78 15.3 59.5 41 2.3 36.1
11:50 1009 29.8 838 24.75 15.5 59.9 40 2.2 35.9
11:55 1009 29.8 838 24.75 16.6 61.8 37 1.8 35.2
12:00 1009 29.8 838 24.75 17.8 64 35 2.1 35.7
12:05 1009 29.8 838 24.75 18.3 64.9 35 2.5 36.6
12:10 1009 29.8 838 24.75 18.1 64.7 35 2.7 36.9
12:15 1009 29.8 838 24.75 17.9 64.2 36 2.7 36.9
12:20 1009 29.8 838 24.75 17.2 62.9 36 2.3 36.1
12:25 1009 29.8 839 24.78 17.4 63.2 37 2.8 37.1
12:30 1009 29.8 839 24.78 17.6 63.7 36 2.5 36.5
12:35 1009 29.8 839 24.78 17.4 63.3 39 3.3 38
12:40 1009 29.8 838 24.75 17.5 63.6 37 2.9 37.3
12:45 1009 29.8 839 24.78 18.4 65.2 35 2.8 37.1
12:50 1009 29.8 839 24.78 18.3 64.9 36 2.9 37.3
12:55 1009 29.8 839 24.78 18.1 64.6 41 4.8 40.6
13:00 1009 29.8 839 24.78 18 64.4 36 3 37.4
13:05 1009 29.8 839 24.78 17.8 64 35 2.3 36.2
13:10 1009 29.8 839 24.78 17.7 63.9 35 2.3 36.1
13:15 1009 29.8 838 24.75 18.1 64.5 34 2 35.5
13:20 1009 29.8 838 24.75 18.2 64.8 34 2.2 35.9
13:25 1009 29.8 838 24.75 18 64.3 34 2.1 35.8
13:30 1009 29.8 838 24.75 17.9 64.2 36 2.6 36.7
13:35 1009 29.8 838 24.75 18.2 64.7 34 2.2 35.9
13:40 1009 29.8 838 24.75 18.3 65 34 2.3 36.1
13:45 1009 29.8 838 24.75 18.3 65 34 2.2 36
13:50 1009 29.8 838 24.75 18.7 65.7 32 1.8 35.3
13:55 1009 29.8 838 24.75 19.9 67.9 33 3.5 38.3
14:00 1009 29.8 838 24.75 18.4 65 36 3 37.4
14:05 1009 29.8 838 24.75 17.9 64.3 38 3.6 38.4
14:10 1009 29.8 838 24.75 17.4 63.3 40 3.8 38.9
14:15 1009 29.8 838 24.75 17 62.6 42 4 39.2
14:20 1009 29.8 838 24.75 17 62.7 40 3.5 38.3
14:25 1009 29.8 838 24.75 16.7 62.1 42 3.8 38.9
14:30 1009 29.8 839 24.78 16.5 61.8 41 3.3 37.9
14:35 1009 29.8 839 24.78 16.4 61.4 43 4 39.2
14:40 1009 29.8 839 24.78 16.2 61.1 45 4.2 39.5
14:45 1010 29.83 839 24.78 15.8 60.5 44 3.8 38.8
14:50 1010 29.83 839 24.78 15.9 60.7 42 3.1 37.5
14:55 1010 29.83 839 24.78 16 60.9 42 3.1 37.7
15:00 1010 29.83 839 24.78 15.9 60.7 43 3.5 38.3
15:05 1010 29.83 839 24.78 15.9 60.6 44 3.6 38.5
15:10 1010 29.83 839 24.78 16 60.8 44 3.7 38.7
15:15 1010 29.83 839 24.78 16 60.9 44 3.7 38.7
15:20 1010 29.83 839 24.78 16.2 61.1 43 3.7 38.7
15:25 1010 29.83 839 24.78 16.4 61.5 44 4.1 39.4
15:30 1010 29.83 839 24.78 16.8 62.3 41 3.5 38.3
15:35 1010 29.83 839 24.78 16.9 62.5 41 3.7 38.6
15:40 1010 29.83 839 24.78 17 62.7 41 4 39.1
15:45 1010 29.83 839 24.78 16.9 62.4 43 4.3 39.8
15:50 1010 29.83 839 24.78 16.5 61.8 43 4.1 39.3
15:55 1010 29.83 839 24.78 16.5 61.6 44 4.1 39.4
16:00 1010 29.83 839 24.78 16.6 61.9 44 4.3 39.7
16:05 1010 29.83 839 24.78 17 62.6 43 4.4 39.9
16:10 1010 29.83 839 24.78 17.2 62.9 42 4.1 39.4
16:15 1010 29.83 839 24.78 17.5 63.4 40 3.8 38.8
16:20 1010 29.83 839 24.78 17.6 63.6 41 4.3 39.8
16:25 1010 29.83 839 24.78 17.9 64.3 39 3.9 39.1
16:30 1010 29.83 839 24.78 18.1 64.6 37 3.4 38
16:35 1010 29.83 839 24.78 17.7 63.8 40 3.9 39
16:40 1010 29.83 839 24.78 17.4 63.3 41 4.1 39.4
16:45 1010 29.83 839 24.78 17.3 63.2 40 3.7 38.7
16:50 1010 29.83 839 24.78 17.7 63.8 41 4.4 39.9
16:55 1009 29.8 839 24.78 18.3 64.9 39 4.2 39.6
17:00 1009 29.8 839 24.78 18 64.4 37 3.3 37.9
17:05 1010 29.83 839 24.78 17.9 64.2 41 4.4 39.9
17:10 1010 29.83 839 24.78 17.8 64 41 4.4 40
17:15 1010 29.83 839 24.78 17.5 63.5 38 3.2 37.8
17:20 1010 29.83 839 24.78 17.3 63.2 40 3.8 38.8
17:25 1010 29.83 839 24.78 17.2 63 40 3.7 38.6
17:30 1010 29.83 839 24.78 17.6 63.6 41 4.2 39.5
17:35 1010 29.83 839 24.78 17.6 63.6 38 3.4 38.1
17:40 1010 29.83 839 24.78 17.4 63.4 42 4.6 40.3
17:45 1010 29.83 839 24.78 17.3 63.2 41 4.2 39.6
17:50 1010 29.83 839 24.78 17 62.6 43 4.5 40.1
17:55 1010 29.83 839 24.78 16.8 62.2 45 4.9 40.8
18:00 1010 29.83 839 24.78 16.7 62.1 46 5.2 41.3
18:05 1010 29.83 839 24.78 16.8 62.2 46 5.2 41.4
18:10 1010 29.83 839 24.78 16.8 62.2 49 6 42.9
18:15 1010 29.83 839 24.78 16.8 62.3 48 6 42.7
18:20 1009 29.8 839 24.78 16.9 62.4 43 4.2 39.6
18:25 1010 29.83 839 24.78 17 62.6 42 4 39.1
18:30 1010 29.83 839 24.78 17.1 62.8 43 4.6 40.4
18:35 1010 29.83 839 24.78 17.1 62.7 42 4.3 39.7
18:40 1010 29.83 839 24.78 17.1 62.9 42 4.4 39.9
18:45 1010 29.83 839 24.78 17.3 63.1 44 4.9 40.8
18:50 1010 29.83 839 24.78 17.4 63.4 44 5.1 41.2
18:55 1010 29.83 839 24.78 17.5 63.6 42 4.4 40
19:00 1010 29.83 839 24.78 17.4 63.3 44 5 41
19:05 1010 29.83 839 24.78 17.1 62.7 44 5 41
19:10 1010 29.83 839 24.78 16.8 62.3 45 5 41
19:15 1010 29.83 839 24.78 16.7 62.1 45 5 41
19:20 1010 29.83 839 24.78 16.7 62.1 45 4.8 40.6
19:25 1010 29.83 839 24.78 16.7 62.1 44 4.6 40.3
19:30 1010 29.83 839 24.78 16.7 62.1 46 5 41
19:35 1010 29.83 839 24.78 16.6 61.9 45 4.8 40.6
19:40 1010 29.83 839 24.78 16.6 61.9 45 4.7 40.5
19:45 1010 29.83 839 24.78 16.7 62.1 43 4.3 39.7
19:50 1010 29.83 839 24.78 16.7 62 45 4.7 40.4
19:55 1010 29.83 839 24.78 16.4 61.5 46 4.7 40.4
20:00 1010 29.83 839 24.78 16.4 61.5 44 4.3 39.7
20:05 1010 29.83 839 24.78 16.4 61.6 46 4.9 40.8
20:10 1010 29.83 839 24.78 16.2 61.2 46 4.8 40.6
20:15 1010 29.83 840 24.81 16.1 61 46 4.5 40.1
20:20 1010 29.83 840 24.81 16.2 61.1 46 4.8 40.6
20:25 1010 29.83 840 24.81 16.1 61.1 45 4.4 39.9
20:30 1010 29.83 840 24.81 16.3 61.3 43 3.9 39
20:35 1010 29.83 840 24.81 16.4 61.4 44 4 39.3
20:40 1010 29.83 840 24.81 16.3 61.3 44 3.9 39.1
20:45 1010 29.83 840 24.81 16.3 61.4 44 4 39.3
20:50 1010 29.83 840 24.81 16 60.9 46 4.4 40
20:55 1010 29.83 840 24.81 15.9 60.5 45 4.1 39.4
21:00 1011 29.85 840 24.81 16 60.7 45 4.2 39.5
21:05 1011 29.85 840 24.81 16 60.8 45 4.2 39.6
21:10 1011 29.85 840 24.81 15.9 60.7 45 4 39.2
21:15 1011 29.85 840 24.81 15.9 60.6 45 4 39.3
21:20 1011 29.85 840 24.81 15.9 60.5 45 4.2 39.5
21:25 1011 29.85 840 24.81 15.9 60.7 46 4.3 39.7
21:30 1011 29.85 840 24.81 16 60.8 45 4 39.3
21:35 1011 29.85 840 24.81 16 60.8 45 4.2 39.6
21:40 1011 29.85 840 24.81 16 60.7 45 4.2 39.5
21:45 1011 29.85 840 24.81 16 60.8 45 4.2 39.6
21:50 1011 29.85 840 24.81 15.9 60.5 47 4.7 40.5
21:55 1011 29.85 840 24.81 15.5 59.9 49 4.8 40.7
22:00 1011 29.85 840 24.81 15.4 59.7 48 4.5 40.1
22:05 1011 29.85 840 24.81 15.5 59.8 49 4.8 40.6
22:10 1011 29.85 840 24.81 15.2 59.4 50 4.9 40.8
22:15 1011 29.85 840 24.81 15.1 59.1 49 4.6 40.3
22:20 1011 29.85 840 24.81 15.2 59.4 48 4.4 39.8
22:25 1011 29.85 841 24.83 15.3 59.5 49 4.7 40.4
22:30 1011 29.85 841 24.83 15 58.9 51 4.9 40.8
22:35 1011 29.85 841 24.83 14.9 58.8 52 5.2 41.4
22:40 1011 29.85 841 24.83 14.6 58.3 53 5.1 41.2
22:45 1011 29.85 841 24.83 14.5 58.2 52 5 41
22:50 1011 29.85 840 24.81 14.7 58.4 52 5.1 41.3
22:55 1011 29.85 840 24.81 14.6 58.3 54 5.4 41.8
23:00 1011 29.85 840 24.81 14.4 58 55 5.6 42
23:05 1011 29.85 840 24.81 14.4 58 54 5.4 41.7
23:10 1011 29.85 840 24.81 14.5 58 55 5.5 42
23:15 1011 29.85 840 24.81 14.6 58.2 54 5.5 41.9
23:20 1011 29.85 840 24.81 14.6 58.3 54 5.5 41.9
23:25 1011 29.85 840 24.81 14.4 57.9 55 5.6 42.1
23:30 1011 29.85 840 24.81 14.1 57.4 56 5.5 42
23:35 1011 29.85 840 24.81 14 57.1 57 5.5 42
23:40 1011 29.85 840 24.81 13.9 57 57 5.5 42
23:45 1011 29.85 840 24.81 13.8 56.9 57 5.6 42
23:50 1011 29.85 840 24.81 13.8 56.8 57 5.6 42
23:55 1011 29.85 840 24.81 13.9 57 57 5.6 42
24:00 1011 29.85 840 24.81 13.9 57.1 56 5.4 41.8